sensor_id;sensor_type;location;lat;lon;timestamp;P1;durP1;ratioP1;P2;durP2;ratioP2
36257;SDS011;22294;52.044;4.582;2023-01-01T00:02:25;53.03;;;31.27;;
36257;SDS011;22294;52.044;4.582;2023-01-01T00:04:51;46.25;;;29.13;;
36257;SDS011;22294;52.044;4.582;2023-01-01T00:07:16;47.65;;;29.92;;
36257;SDS011;22294;52.044;4.582;2023-01-01T00:09:42;45.50;;;25.90;;
36257;SDS011;22294;52.044;4.582;2023-01-01T00:12:26;45.90;;;29.38;;
36257;SDS011;22294;52.044;4.582;2023-01-01T00:14:51;41.03;;;25.92;;
36257;SDS011;22294;52.044;4.582;2023-01-01T00:17:16;51.67;;;28.20;;
36257;SDS011;22294;52.044;4.582;2023-01-01T00:19:41;37.20;;;21.48;;
36257;SDS011;22294;52.044;4.582;2023-01-01T00:22:07;30.92;;;19.40;;
36257;SDS011;22294;52.044;4.582;2023-01-01T00:24:32;40.22;;;22.40;;
36257;SDS011;22294;52.044;4.582;2023-01-01T00:26:57;31.52;;;18.02;;
36257;SDS011;22294;52.044;4.582;2023-01-01T00:29:23;32.40;;;16.73;;
36257;SDS011;22294;52.044;4.582;2023-01-01T00:31:48;28.48;;;14.43;;
36257;SDS011;22294;52.044;4.582;2023-01-01T00:34:13;27.63;;;13.05;;
36257;SDS011;22294;52.044;4.582;2023-01-01T00:36:39;20.55;;;12.40;;
36257;SDS011;22294;52.044;4.582;2023-01-01T00:39:04;22.55;;;11.45;;
36257;SDS011;22294;52.044;4.582;2023-01-01T00:41:29;27.15;;;11.82;;
36257;SDS011;22294;52.044;4.582;2023-01-01T00:43:55;22.40;;;10.52;;
36257;SDS011;22294;52.044;4.582;2023-01-01T00:46:20;22.63;;;10.52;;
36257;SDS011;22294;52.044;4.582;2023-01-01T00:48:45;27.90;;;11.05;;
36257;SDS011;22294;52.044;4.582;2023-01-01T00:51:11;21.75;;;9.10;;
36257;SDS011;22294;52.044;4.582;2023-01-01T00:53:36;22.52;;;8.77;;
36257;SDS011;22294;52.044;4.582;2023-01-01T00:56:02;18.20;;;8.65;;
36257;SDS011;22294;52.044;4.582;2023-01-01T00:58:28;22.33;;;9.95;;
36257;SDS011;22294;52.044;4.582;2023-01-01T01:00:53;24.05;;;9.88;;
36257;SDS011;22294;52.044;4.582;2023-01-01T01:03:19;26.15;;;10.48;;
36257;SDS011;22294;52.044;4.582;2023-01-01T01:08:29;24.65;;;9.68;;
36257;SDS011;22294;52.044;4.582;2023-01-01T01:13:36;14.45;;;6.68;;
36257;SDS011;22294;52.044;4.582;2023-01-01T01:16:18;17.58;;;7.28;;
36257;SDS011;22294;52.044;4.582;2023-01-01T01:18:51;14.20;;;6.55;;
36257;SDS011;22294;52.044;4.582;2023-01-01T01:21:18;14.82;;;5.10;;
36257;SDS011;22294;52.044;4.582;2023-01-01T01:23:45;19.90;;;5.72;;
36257;SDS011;22294;52.044;4.582;2023-01-01T01:26:15;18.02;;;5.80;;
36257;SDS011;22294;52.044;4.582;2023-01-01T01:28:42;11.77;;;4.40;;
36257;SDS011;22294;52.044;4.582;2023-01-01T01:31:08;14.45;;;5.00;;
36257;SDS011;22294;52.044;4.582;2023-01-01T01:33:34;16.10;;;4.90;;
36257;SDS011;22294;52.044;4.582;2023-01-01T01:36:00;13.25;;;4.80;;
36257;SDS011;22294;52.044;4.582;2023-01-01T01:38:26;12.27;;;4.32;;
36257;SDS011;22294;52.044;4.582;2023-01-01T01:40:51;11.10;;;4.03;;
36257;SDS011;22294;52.044;4.582;2023-01-01T01:43:19;15.73;;;4.15;;
36257;SDS011;22294;52.044;4.582;2023-01-01T01:45:55;13.70;;;4.38;;
36257;SDS011;22294;52.044;4.582;2023-01-01T01:48:25;12.18;;;3.72;;
36257;SDS011;22294;52.044;4.582;2023-01-01T01:50:50;12.93;;;3.97;;
36257;SDS011;22294;52.044;4.582;2023-01-01T01:53:22;10.45;;;3.35;;
36257;SDS011;22294;52.044;4.582;2023-01-01T01:55:52;7.63;;;3.63;;
36257;SDS011;22294;52.044;4.582;2023-01-01T02:00:57;9.70;;;3.70;;
36257;SDS011;22294;52.044;4.582;2023-01-01T02:03:25;12.52;;;3.88;;
36257;SDS011;22294;52.044;4.582;2023-01-01T02:05:54;9.27;;;3.75;;
36257;SDS011;22294;52.044;4.582;2023-01-01T02:08:21;8.98;;;3.05;;
36257;SDS011;22294;52.044;4.582;2023-01-01T02:10:47;13.77;;;4.00;;
36257;SDS011;22294;52.044;4.582;2023-01-01T02:13:12;10.82;;;3.83;;
36257;SDS011;22294;52.044;4.582;2023-01-01T02:15:41;13.93;;;3.65;;
36257;SDS011;22294;52.044;4.582;2023-01-01T02:18:12;11.52;;;3.22;;
36257;SDS011;22294;52.044;4.582;2023-01-01T02:20:47;10.45;;;3.35;;
36257;SDS011;22294;52.044;4.582;2023-01-01T02:31:57;10.55;;;3.08;;
36257;SDS011;22294;52.044;4.582;2023-01-01T02:34:27;10.55;;;3.22;;
36257;SDS011;22294;52.044;4.582;2023-01-01T02:36:58;11.07;;;2.50;;
36257;SDS011;22294;52.044;4.582;2023-01-01T02:39:26;7.65;;;2.63;;
36257;SDS011;22294;52.044;4.582;2023-01-01T02:41:55;11.75;;;2.92;;
36257;SDS011;22294;52.044;4.582;2023-01-01T02:44:24;9.80;;;3.05;;
36257;SDS011;22294;52.044;4.582;2023-01-01T02:46:52;12.35;;;2.60;;
36257;SDS011;22294;52.044;4.582;2023-01-01T02:49:17;10.57;;;2.45;;
36257;SDS011;22294;52.044;4.582;2023-01-01T02:54:11;8.13;;;2.40;;
36257;SDS011;22294;52.044;4.582;2023-01-01T02:56:53;5.93;;;2.03;;
36257;SDS011;22294;52.044;4.582;2023-01-01T02:59:22;7.60;;;2.50;;
36257;SDS011;22294;52.044;4.582;2023-01-01T03:10:15;10.45;;;2.38;;
36257;SDS011;22294;52.044;4.582;2023-01-01T03:15:57;10.35;;;2.60;;
36257;SDS011;22294;52.044;4.582;2023-01-01T03:21:10;9.98;;;2.20;;
36257;SDS011;22294;52.044;4.582;2023-01-01T03:23:41;12.13;;;2.47;;
36257;SDS011;22294;52.044;4.582;2023-01-01T03:26:11;11.05;;;2.45;;
36257;SDS011;22294;52.044;4.582;2023-01-01T03:28:45;12.93;;;2.25;;
36257;SDS011;22294;52.044;4.582;2023-01-01T03:31:14;12.70;;;2.38;;
36257;SDS011;22294;52.044;4.582;2023-01-01T03:33:43;10.50;;;2.80;;
36257;SDS011;22294;52.044;4.582;2023-01-01T03:39:20;10.98;;;2.60;;
36257;SDS011;22294;52.044;4.582;2023-01-01T03:47:22;8.75;;;1.50;;
36257;SDS011;22294;52.044;4.582;2023-01-01T03:49:48;8.88;;;1.90;;
36257;SDS011;22294;52.044;4.582;2023-01-01T03:52:25;8.20;;;1.73;;
36257;SDS011;22294;52.044;4.582;2023-01-01T03:55:44;7.72;;;1.67;;
36257;SDS011;22294;52.044;4.582;2023-01-01T03:57:51;5.15;;;1.85;;
36257;SDS011;22294;52.044;4.582;2023-01-01T04:00:27;5.80;;;1.20;;
36257;SDS011;22294;52.044;4.582;2023-01-01T04:05:38;6.72;;;1.35;;
36257;SDS011;22294;52.044;4.582;2023-01-01T04:08:05;5.97;;;1.50;;
36257;SDS011;22294;52.044;4.582;2023-01-01T04:10:32;7.28;;;1.40;;
36257;SDS011;22294;52.044;4.582;2023-01-01T04:13:00;7.10;;;1.52;;
36257;SDS011;22294;52.044;4.582;2023-01-01T04:15:28;8.07;;;1.40;;
36257;SDS011;22294;52.044;4.582;2023-01-01T04:17:55;5.13;;;1.40;;
36257;SDS011;22294;52.044;4.582;2023-01-01T04:20:21;5.47;;;1.52;;
36257;SDS011;22294;52.044;4.582;2023-01-01T04:22:46;8.90;;;2.25;;
36257;SDS011;22294;52.044;4.582;2023-01-01T04:25:12;9.90;;;1.50;;
36257;SDS011;22294;52.044;4.582;2023-01-01T04:27:39;6.88;;;1.67;;
36257;SDS011;22294;52.044;4.582;2023-01-01T04:30:06;7.20;;;1.95;;
36257;SDS011;22294;52.044;4.582;2023-01-01T04:32:33;7.30;;;2.05;;
36257;SDS011;22294;52.044;4.582;2023-01-01T04:34:59;8.15;;;1.65;;
36257;SDS011;22294;52.044;4.582;2023-01-01T04:37:24;8.75;;;2.70;;
36257;SDS011;22294;52.044;4.582;2023-01-01T04:39:50;6.30;;;1.70;;
36257;SDS011;22294;52.044;4.582;2023-01-01T04:42:16;8.85;;;2.20;;
36257;SDS011;22294;52.044;4.582;2023-01-01T04:44:41;9.02;;;2.40;;
36257;SDS011;22294;52.044;4.582;2023-01-01T04:47:06;13.50;;;2.50;;
36257;SDS011;22294;52.044;4.582;2023-01-01T04:49:32;8.35;;;1.95;;
36257;SDS011;22294;52.044;4.582;2023-01-01T04:51:57;11.48;;;2.33;;
36257;SDS011;22294;52.044;4.582;2023-01-01T04:54:23;11.18;;;2.75;;
36257;SDS011;22294;52.044;4.582;2023-01-01T04:56:48;11.38;;;2.60;;
36257;SDS011;22294;52.044;4.582;2023-01-01T04:59:13;9.50;;;2.10;;
36257;SDS011;22294;52.044;4.582;2023-01-01T05:01:39;10.68;;;1.95;;
36257;SDS011;22294;52.044;4.582;2023-01-01T05:04:04;13.45;;;2.30;;
36257;SDS011;22294;52.044;4.582;2023-01-01T05:06:29;12.77;;;2.85;;
36257;SDS011;22294;52.044;4.582;2023-01-01T05:08:55;9.82;;;2.05;;
36257;SDS011;22294;52.044;4.582;2023-01-01T05:11:22;16.38;;;2.63;;
36257;SDS011;22294;52.044;4.582;2023-01-01T05:13:52;11.57;;;2.17;;
36257;SDS011;22294;52.044;4.582;2023-01-01T05:16:20;13.65;;;2.22;;
36257;SDS011;22294;52.044;4.582;2023-01-01T05:18:48;11.90;;;2.67;;
36257;SDS011;22294;52.044;4.582;2023-01-01T05:21:14;15.18;;;2.35;;
36257;SDS011;22294;52.044;4.582;2023-01-01T05:23:42;13.50;;;2.75;;
36257;SDS011;22294;52.044;4.582;2023-01-01T05:26:14;7.78;;;2.15;;
36257;SDS011;22294;52.044;4.582;2023-01-01T05:28:41;13.25;;;2.13;;
36257;SDS011;22294;52.044;4.582;2023-01-01T05:31:08;12.82;;;2.08;;
36257;SDS011;22294;52.044;4.582;2023-01-01T05:33:39;11.77;;;2.10;;
36257;SDS011;22294;52.044;4.582;2023-01-01T05:36:05;12.10;;;1.95;;
36257;SDS011;22294;52.044;4.582;2023-01-01T05:38:33;11.00;;;2.65;;
36257;SDS011;22294;52.044;4.582;2023-01-01T05:40:58;8.70;;;1.80;;
36257;SDS011;22294;52.044;4.582;2023-01-01T05:43:24;10.70;;;2.10;;
36257;SDS011;22294;52.044;4.582;2023-01-01T05:45:58;9.88;;;2.13;;
36257;SDS011;22294;52.044;4.582;2023-01-01T05:48:27;14.48;;;2.40;;
36257;SDS011;22294;52.044;4.582;2023-01-01T05:50:53;10.23;;;2.05;;
36257;SDS011;22294;52.044;4.582;2023-01-01T05:53:19;8.02;;;1.75;;
36257;SDS011;22294;52.044;4.582;2023-01-01T05:55:50;11.13;;;2.28;;
36257;SDS011;22294;52.044;4.582;2023-01-01T05:58:16;14.25;;;2.20;;
36257;SDS011;22294;52.044;4.582;2023-01-01T06:00:41;11.60;;;2.28;;
36257;SDS011;22294;52.044;4.582;2023-01-01T06:03:07;18.35;;;2.72;;
36257;SDS011;22294;52.044;4.582;2023-01-01T06:05:33;10.05;;;2.03;;
36257;SDS011;22294;52.044;4.582;2023-01-01T06:07:59;11.68;;;2.40;;
36257;SDS011;22294;52.044;4.582;2023-01-01T06:10:24;13.18;;;2.17;;
36257;SDS011;22294;52.044;4.582;2023-01-01T06:12:50;13.05;;;2.53;;
36257;SDS011;22294;52.044;4.582;2023-01-01T06:15:15;13.43;;;2.50;;
36257;SDS011;22294;52.044;4.582;2023-01-01T06:17:40;9.45;;;2.65;;
36257;SDS011;22294;52.044;4.582;2023-01-01T06:20:06;11.63;;;2.30;;
36257;SDS011;22294;52.044;4.582;2023-01-01T06:22:34;12.60;;;2.17;;
36257;SDS011;22294;52.044;4.582;2023-01-01T06:25:00;9.95;;;2.35;;
36257;SDS011;22294;52.044;4.582;2023-01-01T06:27:25;16.48;;;2.17;;
36257;SDS011;22294;52.044;4.582;2023-01-01T06:29:51;14.00;;;2.50;;
36257;SDS011;22294;52.044;4.582;2023-01-01T06:32:16;18.45;;;2.63;;
36257;SDS011;22294;52.044;4.582;2023-01-01T06:34:41;13.10;;;2.45;;
36257;SDS011;22294;52.044;4.582;2023-01-01T06:37:07;15.57;;;2.72;;
36257;SDS011;22294;52.044;4.582;2023-01-01T06:39:32;14.32;;;2.88;;
36257;SDS011;22294;52.044;4.582;2023-01-01T06:41:57;17.67;;;2.72;;
36257;SDS011;22294;52.044;4.582;2023-01-01T06:44:22;11.77;;;1.80;;
36257;SDS011;22294;52.044;4.582;2023-01-01T06:46:48;14.77;;;2.15;;
36257;SDS011;22294;52.044;4.582;2023-01-01T06:49:13;13.15;;;2.40;;
36257;SDS011;22294;52.044;4.582;2023-01-01T06:51:39;7.32;;;1.98;;
36257;SDS011;22294;52.044;4.582;2023-01-01T06:54:06;14.27;;;2.40;;
36257;SDS011;22294;52.044;4.582;2023-01-01T06:56:33;15.82;;;2.80;;
36257;SDS011;22294;52.044;4.582;2023-01-01T06:58:59;12.80;;;2.35;;
36257;SDS011;22294;52.044;4.582;2023-01-01T07:01:25;15.50;;;2.95;;
36257;SDS011;22294;52.044;4.582;2023-01-01T07:03:53;14.18;;;1.83;;
36257;SDS011;22294;52.044;4.582;2023-01-01T07:06:23;13.60;;;3.10;;
36257;SDS011;22294;52.044;4.582;2023-01-01T07:08:49;13.45;;;2.03;;
36257;SDS011;22294;52.044;4.582;2023-01-01T07:11:15;12.07;;;2.38;;
36257;SDS011;22294;52.044;4.582;2023-01-01T07:13:41;14.65;;;2.33;;
36257;SDS011;22294;52.044;4.582;2023-01-01T07:16:07;12.77;;;2.08;;
36257;SDS011;22294;52.044;4.582;2023-01-01T07:18:32;13.63;;;2.40;;
36257;SDS011;22294;52.044;4.582;2023-01-01T07:20:58;15.07;;;2.20;;
36257;SDS011;22294;52.044;4.582;2023-01-01T07:23:26;11.02;;;1.95;;
36257;SDS011;22294;52.044;4.582;2023-01-01T07:25:53;15.13;;;2.75;;
36257;SDS011;22294;52.044;4.582;2023-01-01T07:28:19;10.63;;;2.88;;
36257;SDS011;22294;52.044;4.582;2023-01-01T07:30:46;18.55;;;2.10;;
36257;SDS011;22294;52.044;4.582;2023-01-01T07:33:12;17.13;;;2.25;;
36257;SDS011;22294;52.044;4.582;2023-01-01T07:35:40;15.93;;;2.63;;
36257;SDS011;22294;52.044;4.582;2023-01-01T07:38:06;17.73;;;2.20;;
36257;SDS011;22294;52.044;4.582;2023-01-01T07:40:32;12.48;;;2.22;;
36257;SDS011;22294;52.044;4.582;2023-01-01T07:42:57;13.52;;;2.20;;
36257;SDS011;22294;52.044;4.582;2023-01-01T07:45:23;14.90;;;2.25;;
36257;SDS011;22294;52.044;4.582;2023-01-01T07:47:49;13.45;;;2.60;;
36257;SDS011;22294;52.044;4.582;2023-01-01T07:50:17;13.07;;;2.08;;
36257;SDS011;22294;52.044;4.582;2023-01-01T07:52:43;13.23;;;2.53;;
36257;SDS011;22294;52.044;4.582;2023-01-01T07:55:11;8.32;;;1.70;;
36257;SDS011;22294;52.044;4.582;2023-01-01T07:57:38;15.00;;;2.55;;
36257;SDS011;22294;52.044;4.582;2023-01-01T08:00:05;12.05;;;1.95;;
36257;SDS011;22294;52.044;4.582;2023-01-01T08:02:32;12.63;;;1.98;;
36257;SDS011;22294;52.044;4.582;2023-01-01T08:04:57;17.92;;;2.25;;
36257;SDS011;22294;52.044;4.582;2023-01-01T08:07:22;10.60;;;1.80;;
36257;SDS011;22294;52.044;4.582;2023-01-01T08:09:47;12.38;;;2.00;;
36257;SDS011;22294;52.044;4.582;2023-01-01T08:12:13;15.10;;;1.98;;
36257;SDS011;22294;52.044;4.582;2023-01-01T08:14:38;18.58;;;2.53;;
36257;SDS011;22294;52.044;4.582;2023-01-01T08:17:03;9.27;;;1.45;;
36257;SDS011;22294;52.044;4.582;2023-01-01T08:19:29;14.25;;;2.25;;
36257;SDS011;22294;52.044;4.582;2023-01-01T08:21:54;12.57;;;2.33;;
36257;SDS011;22294;52.044;4.582;2023-01-01T08:24:19;17.10;;;2.30;;
36257;SDS011;22294;52.044;4.582;2023-01-01T08:26:47;12.90;;;2.00;;
36257;SDS011;22294;52.044;4.582;2023-01-01T08:29:12;15.63;;;2.33;;
36257;SDS011;22294;52.044;4.582;2023-01-01T08:31:37;13.00;;;3.10;;
36257;SDS011;22294;52.044;4.582;2023-01-01T08:34:03;13.52;;;2.30;;
36257;SDS011;22294;52.044;4.582;2023-01-01T08:36:28;9.02;;;1.55;;
36257;SDS011;22294;52.044;4.582;2023-01-01T08:38:54;10.93;;;2.30;;
36257;SDS011;22294;52.044;4.582;2023-01-01T08:41:19;14.30;;;2.00;;
36257;SDS011;22294;52.044;4.582;2023-01-01T08:43:44;11.63;;;1.58;;
36257;SDS011;22294;52.044;4.582;2023-01-01T08:46:09;9.93;;;2.05;;
36257;SDS011;22294;52.044;4.582;2023-01-01T08:48:35;15.52;;;2.47;;
36257;SDS011;22294;52.044;4.582;2023-01-01T08:51:00;13.30;;;2.10;;
36257;SDS011;22294;52.044;4.582;2023-01-01T08:53:26;9.52;;;1.77;;
36257;SDS011;22294;52.044;4.582;2023-01-01T08:55:56;13.50;;;1.63;;
36257;SDS011;22294;52.044;4.582;2023-01-01T08:58:22;15.05;;;1.95;;
36257;SDS011;22294;52.044;4.582;2023-01-01T09:00:48;12.93;;;1.90;;
36257;SDS011;22294;52.044;4.582;2023-01-01T09:03:13;13.90;;;2.30;;
36257;SDS011;22294;52.044;4.582;2023-01-01T09:05:39;13.32;;;2.28;;
36257;SDS011;22294;52.044;4.582;2023-01-01T09:08:09;11.63;;;1.75;;
36257;SDS011;22294;52.044;4.582;2023-01-01T09:10:35;14.25;;;2.60;;
36257;SDS011;22294;52.044;4.582;2023-01-01T09:13:00;16.65;;;2.53;;
36257;SDS011;22294;52.044;4.582;2023-01-01T09:15:26;8.75;;;1.45;;
36257;SDS011;22294;52.044;4.582;2023-01-01T09:17:51;15.90;;;2.33;;
36257;SDS011;22294;52.044;4.582;2023-01-01T09:20:16;14.25;;;1.80;;
36257;SDS011;22294;52.044;4.582;2023-01-01T09:22:42;15.90;;;2.17;;
36257;SDS011;22294;52.044;4.582;2023-01-01T09:25:07;12.40;;;2.55;;
36257;SDS011;22294;52.044;4.582;2023-01-01T09:27:32;10.15;;;1.70;;
36257;SDS011;22294;52.044;4.582;2023-01-01T09:29:58;9.52;;;1.88;;
36257;SDS011;22294;52.044;4.582;2023-01-01T09:32:24;15.35;;;2.55;;
36257;SDS011;22294;52.044;4.582;2023-01-01T09:34:49;13.80;;;2.28;;
36257;SDS011;22294;52.044;4.582;2023-01-01T09:37:15;9.80;;;2.28;;
36257;SDS011;22294;52.044;4.582;2023-01-01T09:39:40;10.85;;;2.10;;
36257;SDS011;22294;52.044;4.582;2023-01-01T09:42:08;10.88;;;1.85;;
36257;SDS011;22294;52.044;4.582;2023-01-01T09:47:48;15.63;;;2.25;;
36257;SDS011;22294;52.044;4.582;2023-01-01T09:50:20;11.13;;;2.20;;
36257;SDS011;22294;52.044;4.582;2023-01-01T09:55:26;13.75;;;2.13;;
36257;SDS011;22294;52.044;4.582;2023-01-01T09:57:53;13.93;;;2.63;;
36257;SDS011;22294;52.044;4.582;2023-01-01T10:00:20;10.43;;;2.47;;
36257;SDS011;22294;52.044;4.582;2023-01-01T10:05:51;11.43;;;1.88;;
36257;SDS011;22294;52.044;4.582;2023-01-01T10:08:22;14.10;;;2.45;;
36257;SDS011;22294;52.044;4.582;2023-01-01T10:13:31;14.18;;;2.47;;
36257;SDS011;22294;52.044;4.582;2023-01-01T10:16:00;12.63;;;1.90;;
36257;SDS011;22294;52.044;4.582;2023-01-01T10:18:28;12.23;;;1.70;;
36257;SDS011;22294;52.044;4.582;2023-01-01T10:21:01;9.35;;;2.03;;
36257;SDS011;22294;52.044;4.582;2023-01-01T10:23:33;12.38;;;2.13;;
36257;SDS011;22294;52.044;4.582;2023-01-01T10:26:07;10.10;;;1.85;;
36257;SDS011;22294;52.044;4.582;2023-01-01T10:28:42;12.75;;;3.45;;
36257;SDS011;22294;52.044;4.582;2023-01-01T10:31:14;17.08;;;3.10;;
36257;SDS011;22294;52.044;4.582;2023-01-01T10:34:00;11.10;;;2.30;;
36257;SDS011;22294;52.044;4.582;2023-01-01T10:36:38;15.55;;;2.95;;
36257;SDS011;22294;52.044;4.582;2023-01-01T10:39:04;16.63;;;3.38;;
36257;SDS011;22294;52.044;4.582;2023-01-01T10:41:29;9.48;;;2.30;;
36257;SDS011;22294;52.044;4.582;2023-01-01T10:43:55;12.60;;;2.50;;
36257;SDS011;22294;52.044;4.582;2023-01-01T10:46:21;14.77;;;3.17;;
36257;SDS011;22294;52.044;4.582;2023-01-01T10:49:02;13.68;;;4.40;;
36257;SDS011;22294;52.044;4.582;2023-01-01T10:51:30;16.52;;;4.00;;
36257;SDS011;22294;52.044;4.582;2023-01-01T10:53:55;12.23;;;3.00;;
36257;SDS011;22294;52.044;4.582;2023-01-01T10:56:21;14.75;;;2.90;;
36257;SDS011;22294;52.044;4.582;2023-01-01T10:58:49;15.25;;;2.22;;
36257;SDS011;22294;52.044;4.582;2023-01-01T11:04:23;10.47;;;2.37;;
36257;SDS011;22294;52.044;4.582;2023-01-01T11:06:40;15.77;;;2.35;;
36257;SDS011;22294;52.044;4.582;2023-01-01T11:11:46;12.60;;;2.65;;
36257;SDS011;22294;52.044;4.582;2023-01-01T11:14:19;14.45;;;3.30;;
36257;SDS011;22294;52.044;4.582;2023-01-01T11:16:46;21.20;;;3.25;;
36257;SDS011;22294;52.044;4.582;2023-01-01T11:21:50;7.65;;;2.03;;
36257;SDS011;22294;52.044;4.582;2023-01-01T11:24:20;13.45;;;2.85;;
36257;SDS011;22294;52.044;4.582;2023-01-01T11:26:47;11.88;;;4.05;;
36257;SDS011;22294;52.044;4.582;2023-01-01T11:29:28;8.68;;;2.25;;
36257;SDS011;22294;52.044;4.582;2023-01-01T11:31:54;15.50;;;3.08;;
36257;SDS011;22294;52.044;4.582;2023-01-01T11:36:50;15.20;;;3.10;;
36257;SDS011;22294;52.044;4.582;2023-01-01T11:41:51;13.40;;;3.13;;
36257;SDS011;22294;52.044;4.582;2023-01-01T11:47:15;12.82;;;3.30;;
36257;SDS011;22294;52.044;4.582;2023-01-01T11:52:39;17.50;;;3.95;;
36257;SDS011;22294;52.044;4.582;2023-01-01T11:55:11;10.45;;;2.50;;
36257;SDS011;22294;52.044;4.582;2023-01-01T11:57:50;11.48;;;2.72;;
36257;SDS011;22294;52.044;4.582;2023-01-01T12:00:23;9.80;;;2.55;;
36257;SDS011;22294;52.044;4.582;2023-01-01T12:02:57;12.10;;;3.60;;
36257;SDS011;22294;52.044;4.582;2023-01-01T12:05:48;12.88;;;3.00;;
36257;SDS011;22294;52.044;4.582;2023-01-01T12:08:21;10.30;;;2.55;;
36257;SDS011;22294;52.044;4.582;2023-01-01T12:10:57;11.70;;;3.08;;
36257;SDS011;22294;52.044;4.582;2023-01-01T12:13:29;15.32;;;2.67;;
36257;SDS011;22294;52.044;4.582;2023-01-01T12:16:05;13.32;;;2.83;;
36257;SDS011;22294;52.044;4.582;2023-01-01T12:18:38;14.70;;;2.58;;
36257;SDS011;22294;52.044;4.582;2023-01-01T12:23:47;14.38;;;2.58;;
36257;SDS011;22294;52.044;4.582;2023-01-01T12:34:33;11.95;;;2.40;;
36257;SDS011;22294;52.044;4.582;2023-01-01T12:37:09;16.23;;;2.70;;
36257;SDS011;22294;52.044;4.582;2023-01-01T12:58:56;20.83;;;3.45;;
36257;SDS011;22294;52.044;4.582;2023-01-01T13:01:27;15.07;;;2.25;;
36257;SDS011;22294;52.044;4.582;2023-01-01T13:04:15;11.85;;;2.17;;
36257;SDS011;22294;52.044;4.582;2023-01-01T13:06:47;14.00;;;2.88;;
36257;SDS011;22294;52.044;4.582;2023-01-01T13:09:19;11.80;;;2.60;;
36257;SDS011;22294;52.044;4.582;2023-01-01T13:11:50;12.73;;;3.15;;
36257;SDS011;22294;52.044;4.582;2023-01-01T13:14:20;13.40;;;3.38;;
36257;SDS011;22294;52.044;4.582;2023-01-01T13:16:55;16.85;;;3.10;;
36257;SDS011;22294;52.044;4.582;2023-01-01T13:19:26;15.60;;;3.00;;
36257;SDS011;22294;52.044;4.582;2023-01-01T13:21:55;12.00;;;2.45;;
36257;SDS011;22294;52.044;4.582;2023-01-01T13:24:24;14.73;;;2.42;;
36257;SDS011;22294;52.044;4.582;2023-01-01T13:26:51;16.55;;;2.70;;
36257;SDS011;22294;52.044;4.582;2023-01-01T13:45:25;11.27;;;2.13;;
36257;SDS011;22294;52.044;4.582;2023-01-01T13:53:53;17.17;;;2.30;;
36257;SDS011;22294;52.044;4.582;2023-01-01T13:56:57;14.98;;;3.10;;
36257;SDS011;22294;52.044;4.582;2023-01-01T13:59:37;16.80;;;2.88;;
36257;SDS011;22294;52.044;4.582;2023-01-01T14:02:23;9.98;;;2.53;;
36257;SDS011;22294;52.044;4.582;2023-01-01T14:10:24;11.88;;;2.55;;
36257;SDS011;22294;52.044;4.582;2023-01-01T14:13:01;15.23;;;2.90;;
36257;SDS011;22294;52.044;4.582;2023-01-01T14:15:42;12.48;;;2.95;;
36257;SDS011;22294;52.044;4.582;2023-01-01T14:18:10;15.10;;;2.55;;
36257;SDS011;22294;52.044;4.582;2023-01-01T14:20:43;16.30;;;2.63;;
36257;SDS011;22294;52.044;4.582;2023-01-01T14:23:11;11.48;;;2.13;;
36257;SDS011;22294;52.044;4.582;2023-01-01T14:25:42;12.95;;;3.22;;
36257;SDS011;22294;52.044;4.582;2023-01-01T14:28:14;14.43;;;2.72;;
36257;SDS011;22294;52.044;4.582;2023-01-01T14:30:44;11.60;;;2.72;;
36257;SDS011;22294;52.044;4.582;2023-01-01T14:33:19;14.13;;;2.72;;
36257;SDS011;22294;52.044;4.582;2023-01-01T14:35:56;14.30;;;2.67;;
36257;SDS011;22294;52.044;4.582;2023-01-01T14:38:24;21.17;;;2.85;;
36257;SDS011;22294;52.044;4.582;2023-01-01T14:43:28;16.20;;;3.47;;
36257;SDS011;22294;52.044;4.582;2023-01-01T14:45:54;11.65;;;2.90;;
36257;SDS011;22294;52.044;4.582;2023-01-01T14:48:19;15.80;;;2.17;;
36257;SDS011;22294;52.044;4.582;2023-01-01T14:50:52;12.32;;;2.70;;
36257;SDS011;22294;52.044;4.582;2023-01-01T14:53:19;12.98;;;2.33;;
36257;SDS011;22294;52.044;4.582;2023-01-01T14:55:48;14.88;;;2.92;;
36257;SDS011;22294;52.044;4.582;2023-01-01T14:58:15;12.98;;;3.47;;
36257;SDS011;22294;52.044;4.582;2023-01-01T15:00:43;15.10;;;2.95;;
36257;SDS011;22294;52.044;4.582;2023-01-01T15:03:13;11.10;;;3.08;;
36257;SDS011;22294;52.044;4.582;2023-01-01T15:05:40;10.52;;;2.30;;
36257;SDS011;22294;52.044;4.582;2023-01-01T15:08:20;12.40;;;2.92;;
36257;SDS011;22294;52.044;4.582;2023-01-01T15:10:47;15.85;;;2.92;;
36257;SDS011;22294;52.044;4.582;2023-01-01T15:13:20;14.20;;;2.35;;
36257;SDS011;22294;52.044;4.582;2023-01-01T15:15:49;13.43;;;3.45;;
36257;SDS011;22294;52.044;4.582;2023-01-01T15:21:00;13.65;;;6.13;;
36257;SDS011;22294;52.044;4.582;2023-01-01T15:23:28;15.82;;;3.35;;
36257;SDS011;22294;52.044;4.582;2023-01-01T15:25:53;10.75;;;2.58;;
36257;SDS011;22294;52.044;4.582;2023-01-01T15:28:19;8.57;;;2.55;;
36257;SDS011;22294;52.044;4.582;2023-01-01T15:30:50;14.85;;;3.17;;
36257;SDS011;22294;52.044;4.582;2023-01-01T15:33:18;11.55;;;2.42;;
36257;SDS011;22294;52.044;4.582;2023-01-01T15:35:50;13.35;;;3.13;;
36257;SDS011;22294;52.044;4.582;2023-01-01T15:38:23;11.25;;;2.72;;
36257;SDS011;22294;52.044;4.582;2023-01-01T15:40:51;13.20;;;2.55;;
36257;SDS011;22294;52.044;4.582;2023-01-01T15:43:20;17.17;;;3.00;;
36257;SDS011;22294;52.044;4.582;2023-01-01T15:51:02;13.43;;;2.97;;
36257;SDS011;22294;52.044;4.582;2023-01-01T15:53:44;18.92;;;3.10;;
36257;SDS011;22294;52.044;4.582;2023-01-01T15:56:13;11.02;;;2.80;;
36257;SDS011;22294;52.044;4.582;2023-01-01T16:01:18;12.27;;;3.05;;
36257;SDS011;22294;52.044;4.582;2023-01-01T16:03:46;11.57;;;2.63;;
36257;SDS011;22294;52.044;4.582;2023-01-01T16:06:15;14.68;;;3.63;;
36257;SDS011;22294;52.044;4.582;2023-01-01T16:08:41;14.82;;;3.63;;
36257;SDS011;22294;52.044;4.582;2023-01-01T16:11:07;13.88;;;3.38;;
36257;SDS011;22294;52.044;4.582;2023-01-01T16:13:32;13.23;;;3.08;;
36257;SDS011;22294;52.044;4.582;2023-01-01T16:15:58;18.67;;;3.67;;
36257;SDS011;22294;52.044;4.582;2023-01-01T16:18:32;13.30;;;3.30;;
36257;SDS011;22294;52.044;4.582;2023-01-01T16:21:00;13.88;;;2.72;;
36257;SDS011;22294;52.044;4.582;2023-01-01T16:23:26;23.17;;;4.05;;
36257;SDS011;22294;52.044;4.582;2023-01-01T16:25:52;9.88;;;3.40;;
36257;SDS011;22294;52.044;4.582;2023-01-01T16:28:17;12.88;;;3.28;;
36257;SDS011;22294;52.044;4.582;2023-01-01T16:30:42;11.32;;;3.80;;
36257;SDS011;22294;52.044;4.582;2023-01-01T16:33:14;15.15;;;4.00;;
36257;SDS011;22294;52.044;4.582;2023-01-01T16:35:44;19.85;;;4.07;;
36257;SDS011;22294;52.044;4.582;2023-01-01T16:38:09;15.98;;;3.40;;
36257;SDS011;22294;52.044;4.582;2023-01-01T16:40:35;14.88;;;3.60;;
36257;SDS011;22294;52.044;4.582;2023-01-01T16:43:00;13.27;;;3.15;;
36257;SDS011;22294;52.044;4.582;2023-01-01T16:45:26;15.18;;;3.65;;
36257;SDS011;22294;52.044;4.582;2023-01-01T16:47:51;11.95;;;2.95;;
36257;SDS011;22294;52.044;4.582;2023-01-01T16:50:18;12.23;;;3.05;;
36257;SDS011;22294;52.044;4.582;2023-01-01T16:52:43;17.88;;;3.22;;
36257;SDS011;22294;52.044;4.582;2023-01-01T16:55:09;10.60;;;3.15;;
36257;SDS011;22294;52.044;4.582;2023-01-01T16:57:34;14.95;;;3.65;;
36257;SDS011;22294;52.044;4.582;2023-01-01T16:59:59;16.30;;;3.80;;
36257;SDS011;22294;52.044;4.582;2023-01-01T17:02:25;11.38;;;3.70;;
36257;SDS011;22294;52.044;4.582;2023-01-01T17:04:55;14.77;;;4.32;;
36257;SDS011;22294;52.044;4.582;2023-01-01T17:07:25;17.35;;;5.55;;
36257;SDS011;22294;52.044;4.582;2023-01-01T17:09:51;16.83;;;4.00;;